Time;durP1;ratioP1;P1;durP2;ratioP2;P2;SDS_P1;SDS_P2;PMS_P1;PMS_P2;Temp;Humidity;BMP_temperature;BMP_pressure;BME280_temperature;BME280_humidity;BME280_pressure;Samples;Min_cycle;Max_cycle;Signal;HPM_P1;HPM_P2
2022/04/13 00:00:30;;;;;;;10.82;5.95;;;;;;;12.35;83.64;101327.75;5072125;28;20086;-74
2022/04/13 00:02:59;;;;;;;17.85;7.18;;;;;;;12.32;84.14;101326.84;5072194;28;20369;-74
2022/04/13 00:05:27;;;;;;;15.20;6.53;;;;;;;12.31;84.35;101320.69;5072046;28;20055;-74
2022/04/13 00:07:56;;;;;;;16.40;7.35;;;;;;;12.29;84.11;101329.41;5072037;28;20048;-74
2022/04/13 00:10:26;;;;;;;13.18;7.28;;;;;;;12.27;84.23;101332.03;5071844;28;20480;-74
2022/04/13 00:12:54;;;;;;;12.75;6.95;;;;;;;12.27;84.56;101328.50;5072037;28;20056;-74
2022/04/13 00:15:22;;;;;;;20.08;7.75;;;;;;;12.23;85.01;101317.06;5072049;28;20056;-74
2022/04/13 00:17:50;;;;;;;17.52;7.13;;;;;;;12.21;85.22;101315.28;5072000;28;20102;-75
2022/04/13 00:20:18;;;;;;;15.38;7.35;;;;;;;12.17;85.42;101319.59;5071829;28;20082;-74
2022/04/13 00:22:46;;;;;;;14.07;6.97;;;;;;;12.15;85.61;101317.81;5072133;28;20473;-74
2022/04/13 00:25:14;;;;;;;14.27;6.82;;;;;;;12.14;85.22;101316.06;5071990;28;20124;-74
2022/04/13 00:27:44;;;;;;;18.55;7.85;;;;;;;12.10;86.00;101316.00;5071731;28;20094;-75
2022/04/13 00:30:12;;;;;;;16.15;8.00;;;;;;;12.09;86.55;101324.75;5072036;28;20047;-75
2022/04/13 00:32:40;;;;;;;15.68;7.45;;;;;;;12.10;86.54;101326.53;5071487;28;20048;-76
2022/04/13 00:35:08;;;;;;;13.63;7.18;;;;;;;12.11;86.76;101330.03;5071754;28;20135;-76
2022/04/13 00:37:38;;;;;;;16.80;7.10;;;;;;;12.09;86.72;101332.63;5071826;28;20076;-76
2022/04/13 00:40:07;;;;;;;14.23;7.75;;;;;;;12.09;87.08;101345.78;5071480;28;20469;-76
2022/04/13 00:42:35;;;;;;;20.88;8.43;;;;;;;12.11;87.53;101335.28;5071832;28;20123;-76
2022/04/13 00:45:06;;;;;;;16.77;7.95;;;;;;;12.12;87.05;101339.69;5071788;28;20105;-76
2022/04/13 00:47:39;;;;;;;18.52;8.57;;;;;;;12.12;88.01;101347.56;5071539;28;20453;-75
2022/04/13 00:50:08;;;;;;;25.02;9.70;;;;;;;12.17;88.21;101338.00;5071915;28;20074;-75
2022/04/13 00:52:39;;;;;;;18.35;9.13;;;;;;;12.18;87.43;101341.53;5071763;28;20096;-74
2022/04/13 00:55:09;;;;;;;19.38;9.02;;;;;;;12.18;88.59;101341.53;5071459;28;20090;-74
2022/04/13 00:57:39;;;;;;;18.73;9.13;;;;;;;12.20;88.72;101342.44;5071790;28;20048;-74
2022/04/13 01:00:11;;;;;;;20.27;9.32;;;;;;;12.19;88.40;101351.19;5071822;28;20048;-74
2022/04/13 01:02:40;;;;;;;16.80;9.48;;;;;;;12.18;87.84;101349.41;5071659;28;20048;-74
2022/04/13 01:05:09;;;;;;;25.23;10.27;;;;;;;12.18;89.03;101349.41;5071666;28;20044;-74
2022/04/13 01:07:37;;;;;;;21.10;10.05;;;;;;;12.17;89.48;101353.78;5071554;28;20063;-74
2022/04/13 01:10:07;;;;;;;19.75;9.38;;;;;;;12.18;88.72;101350.31;5071448;28;20052;-74
2022/04/13 01:12:35;;;;;;;20.42;10.80;;;;;;;12.17;88.76;101361.69;5071480;28;20041;-74
2022/04/13 01:15:05;;;;;;;28.42;12.65;;;;;;;12.15;88.84;101358.13;5071335;28;20087;-75
2022/04/13 01:17:34;;;;;;;22.85;10.80;;;;;;;12.18;89.09;101359.94;5071177;28;20090;-75
2022/04/13 01:20:05;;;;;;;20.65;10.02;;;;;;;12.19;89.34;101353.81;5071571;28;20532;-75
2022/04/13 01:22:34;;;;;;;22.45;10.75;;;;;;;12.17;89.36;101358.16;5074947;28;20128;-75
2022/04/13 01:25:02;;;;;;;24.90;11.52;;;;;;;12.16;89.80;101354.66;5075034;28;20517;-75
2022/04/13 01:27:30;;;;;;;32.00;13.35;;;;;;;12.19;89.79;101353.81;5075074;28;20068;-75
2022/04/13 01:29:58;;;;;;;21.85;10.68;;;;;;;12.15;90.15;101346.75;5074738;28;20091;-76
2022/04/13 01:32:26;;;;;;;25.23;10.65;;;;;;;12.10;89.62;101358.06;5074844;28;20052;-76
2022/04/13 01:34:54;;;;;;;26.10;11.45;;;;;;;12.09;90.97;101361.56;5074679;28;20066;-76
2022/04/13 01:37:23;;;;;;;25.90;11.18;;;;;;;12.08;90.78;101359.78;5075272;28;20384;-76
2022/04/13 01:39:54;;;;;;;20.75;11.57;;;;;;;12.08;90.77;101369.44;5074515;28;20106;-76
2022/04/13 01:42:22;;;;;;;23.48;11.52;;;;;;;12.08;91.29;101365.06;5074902;28;20080;-75
2022/04/13 01:44:49;;;;;;;24.45;10.88;;;;;;;12.06;91.25;101364.16;5074634;28;20044;-76
2022/04/13 01:47:16;;;;;;;22.92;10.98;;;;;;;12.07;91.57;101372.91;5074960;28;20124;-76
2022/04/13 01:49:44;;;;;;;24.15;11.73;;;;;;;12.02;91.45;101374.59;5074733;28;20048;-76
2022/04/13 01:52:13;;;;;;;18.85;10.00;;;;;;;12.01;90.93;101373.69;5074535;28;20211;-76
2022/04/13 01:54:41;;;;;;;19.20;10.98;;;;;;;11.98;91.54;101373.66;5074207;28;20495;-74
2022/04/13 01:57:10;;;;;;;23.88;11.02;;;;;;;11.95;91.53;101363.09;5074499;28;20052;-74
2022/04/13 01:59:38;;;;;;;24.73;10.98;;;;;;;11.94;91.88;101371.84;5074467;28;20041;-74
2022/04/13 02:02:06;;;;;;;22.13;11.88;;;;;;;11.92;92.28;101370.03;5074529;28;20067;-75
2022/04/13 02:04:34;;;;;;;25.35;12.30;;;;;;;11.94;92.41;101377.09;5074470;28;20059;-74
2022/04/13 02:07:03;;;;;;;20.80;11.60;;;;;;;11.91;92.82;101374.41;5074344;28;20048;-74
2022/04/13 02:09:31;;;;;;;28.27;12.18;;;;;;;11.91;92.28;101381.41;5074465;28;20048;-75
2022/04/13 02:11:59;;;;;;;28.08;13.65;;;;;;;11.92;92.85;101384.06;5074364;28;20049;-74
2022/04/13 02:14:28;;;;;;;21.50;11.55;;;;;;;11.93;93.16;101385.84;5074427;28;20084;-74
2022/04/13 02:16:56;;;;;;;24.10;11.55;;;;;;;11.94;93.82;101392.88;5073861;28;20090;-75
2022/04/13 02:19:24;;;;;;;28.55;12.02;;;;;;;11.94;93.46;101398.13;5074244;28;20094;-75
2022/04/13 02:21:52;;;;;;;29.15;11.65;;;;;;;11.92;93.52;101389.31;5074046;28;20048;-75
2022/04/13 02:24:20;;;;;;;25.00;11.80;;;;;;;11.97;93.74;101394.66;5073897;28;20098;-74
2022/04/13 02:26:48;;;;;;;20.60;11.30;;;;;;;11.95;93.25;101394.63;5073919;28;20044;-75
2022/04/13 02:29:16;;;;;;;25.05;11.63;;;;;;;11.95;94.13;101397.25;5073861;28;20495;-75
2022/04/13 02:31:45;;;;;;;24.23;11.02;;;;;;;11.95;94.41;101393.75;5072901;28;20079;-75
2022/04/13 02:34:13;;;;;;;26.05;11.20;;;;;;;11.98;94.66;101392.06;5073324;28;20127;-75
2022/04/13 02:36:42;;;;;;;24.48;11.55;;;;;;;11.97;94.44;101386.78;5073853;28;20135;-74
2022/04/13 02:39:11;;;;;;;25.85;11.82;;;;;;;11.93;94.13;101391.09;5073772;28;20052;-75
2022/04/13 02:41:39;;;;;;;26.83;12.35;;;;;;;11.92;94.76;101388.44;5073677;28;20044;-75
2022/04/13 02:44:07;;;;;;;28.23;12.32;;;;;;;11.92;94.88;101399.84;5073125;28;20437;-74
2022/04/13 02:46:35;;;;;;;24.48;11.73;;;;;;;11.92;94.85;101391.06;5073239;28;20044;-75
2022/04/13 02:49:05;;;;;;;27.63;12.07;;;;;;;11.96;95.07;101391.16;5073508;28;20135;-75
2022/04/13 02:51:33;;;;;;;28.15;13.00;;;;;;;11.93;94.87;101395.47;5073228;28;20122;-75
2022/04/13 02:54:01;;;;;;;28.08;13.57;;;;;;;11.89;95.57;101391.91;5073332;28;20052;-75
2022/04/13 02:56:29;;;;;;;33.10;14.45;;;;;;;11.87;95.37;101396.25;5054925;28;20056;-75
2022/04/13 02:58:57;;;;;;;34.95;12.27;;;;;;;11.84;95.65;101403.19;5073106;28;20080;-75
2022/04/13 03:01:25;;;;;;;27.83;13.13;;;;;;;11.81;95.63;101401.41;5073106;28;20088;-75
2022/04/13 03:03:53;;;;;;;27.30;12.38;;;;;;;11.80;95.72;101407.50;5072747;28;20424;-75
2022/04/13 03:06:23;;;;;;;27.63;12.50;;;;;;;11.82;96.07;101407.53;5072930;28;20087;-74
2022/04/13 03:08:50;;;;;;;33.17;12.93;;;;;;;11.78;96.08;101412.75;5073048;28;20059;-76
2022/04/13 03:11:18;;;;;;;30.95;13.52;;;;;;;11.77;96.61;101415.34;5072820;28;20438;-75
2022/04/13 03:13:46;;;;;;;30.23;12.30;;;;;;;11.80;96.33;101418.03;5072814;28;20146;-77
2022/04/13 03:16:14;;;;;;;34.83;12.38;;;;;;;11.78;96.28;101419.75;5072925;28;20076;-74
2022/04/13 03:18:42;;;;;;;30.63;12.68;;;;;;;11.79;96.52;101418.88;5072835;28;20040;-74
2022/04/13 03:21:10;;;;;;;25.52;12.45;;;;;;;11.77;96.65;101410.09;5054796;28;20051;-76
2022/04/13 03:23:40;;;;;;;27.08;12.15;;;;;;;11.78;96.28;101419.75;5072565;28;20075;-74
2022/04/13 03:26:08;;;;;;;26.45;11.85;;;;;;;11.78;96.87;101425.00;5072454;28;20501;-74
2022/04/13 03:28:36;;;;;;;25.08;12.82;;;;;;;11.81;96.60;101437.31;5072225;28;20044;-73
2022/04/13 03:31:04;;;;;;;25.75;11.93;;;;;;;11.79;97.05;101432.03;5072777;28;20106;-75
2022/04/13 03:33:32;;;;;;;28.23;12.35;;;;;;;11.78;96.56;101433.78;5072302;28;20056;-74
2022/04/13 03:36:00;;;;;;;21.88;11.68;;;;;;;11.78;96.70;101439.03;5072563;28;20056;-75
2022/04/13 03:38:28;;;;;;;22.88;10.77;;;;;;;11.77;96.99;101439.88;5072211;28;20044;-74
2022/04/13 03:40:57;;;;;;;25.05;11.73;;;;;;;11.78;97.11;101443.41;5072613;28;20056;-75
2022/04/13 03:43:27;;;;;;;27.38;11.75;;;;;;;11.78;96.67;101448.66;5072163;28;20109;-74
2022/04/13 03:45:54;;;;;;;26.33;11.57;;;;;;;11.81;96.97;101443.44;5072195;28;20048;-74
2022/04/13 03:48:22;;;;;;;28.52;11.70;;;;;;;11.84;96.66;101442.63;5072412;28;20064;-74
2022/04/13 03:50:53;;;;;;;27.35;12.80;;;;;;;11.83;97.15;101451.38;5072468;28;20139;-75
2022/04/13 03:53:21;;;;;;;23.63;11.48;;;;;;;11.78;97.15;101448.66;5072030;28;20063;-75
2022/04/13 03:55:49;;;;;;;25.95;11.07;;;;;;;11.79;97.08;101456.56;5072413;28;20350;-75
2022/04/13 03:58:18;;;;;;;24.25;10.65;;;;;;;11.79;97.05;101450.41;5072618;28;20344;-75
2022/04/13 04:00:46;;;;;;;25.85;11.70;;;;;;;11.78;97.32;101456.53;5071896;28;20076;-75
2022/04/13 04:03:14;;;;;;;26.08;11.23;;;;;;;11.76;97.00;101452.97;5071732;28;20139;-75
2022/04/13 04:05:42;;;;;;;28.45;11.20;;;;;;;11.71;96.82;101459.88;5072015;28;20083;-75
2022/04/13 04:08:10;;;;;;;24.67;11.50;;;;;;;11.64;97.42;101463.25;5072359;28;20071;-75
2022/04/13 04:10:38;;;;;;;24.35;10.45;;;;;;;11.61;97.46;101465.81;5071928;28;20049;-75
2022/04/13 04:13:06;;;;;;;24.08;11.43;;;;;;;11.60;97.63;101464.03;5071936;28;20126;-75
2022/04/13 04:15:35;;;;;;;28.17;11.27;;;;;;;11.53;98.09;101462.16;5071917;28;20036;-75
2022/04/13 04:18:03;;;;;;;28.45;12.45;;;;;;;11.47;98.42;101460.28;5072253;28;20120;-74
2022/04/13 04:20:31;;;;;;;21.67;10.73;;;;;;;11.43;98.41;101466.38;5071719;28;20052;-74
2022/04/13 04:22:59;;;;;;;24.20;11.10;;;;;;;11.35;98.59;101471.47;5072085;28;20128;-74
2022/04/13 04:25:28;;;;;;;24.08;12.15;;;;;;;11.29;99.36;101471.34;5071898;28;20048;-74
2022/04/13 04:27:55;;;;;;;21.25;10.60;;;;;;;11.24;98.89;101478.25;5071810;28;20056;-74
2022/04/13 04:30:23;;;;;;;25.58;13.38;;;;;;;11.21;98.90;101483.44;5072099;28;20075;-74
2022/04/13 04:32:53;;;;;;;24.65;12.45;;;;;;;11.18;99.96;101482.47;5071618;28;20062;-75
2022/04/13 04:35:20;;;;;;;23.60;11.77;;;;;;;11.12;99.93;101493.75;5072071;28;20098;-75
2022/04/13 04:37:48;;;;;;;25.08;12.00;;;;;;;11.06;100.00;101494.50;5071842;28;20049;-75
2022/04/13 04:40:16;;;;;;;23.58;11.85;;;;;;;11.05;99.74;101504.97;5071441;28;20076;-75
2022/04/13 04:42:45;;;;;;;24.58;11.82;;;;;;;10.96;100.00;101505.63;5071472;28;20076;-75
2022/04/13 04:45:16;;;;;;;31.35;12.82;;;;;;;10.95;100.00;101508.22;5071628;28;20127;-75
2022/04/13 04:47:46;;;;;;;24.23;11.10;;;;;;;10.94;100.00;101516.97;5071759;28;20045;-75
2022/04/13 04:50:16;;;;;;;24.70;11.90;;;;;;;10.89;100.00;101510.72;5072071;28;20049;-74
2022/04/13 04:52:45;;;;;;;31.33;12.70;;;;;;;10.85;100.00;101516.75;5071616;28;20044;-75
2022/04/13 04:55:16;;;;;;;29.25;13.27;;;;;;;10.80;100.00;101520.16;5072688;28;20048;-75
2022/04/13 04:57:44;;;;;;;32.08;12.95;;;;;;;10.76;100.00;101527.91;5075371;28;20124;-75
2022/04/13 05:00:15;;;;;;;26.35;12.50;;;;;;;10.76;100.00;101527.91;5075735;28;20071;-75
2022/04/13 05:02:43;;;;;;;27.25;12.52;;;;;;;10.74;100.00;101524.38;5075392;28;20044;-75
2022/04/13 05:05:16;;;;;;;33.38;12.77;;;;;;;10.70;100.00;101527.78;5075344;28;20150;-76
2022/04/13 05:07:47;;;;;;;29.35;14.13;;;;;;;10.65;100.00;101519.78;5075290;28;20087;-74
2022/04/13 05:10:16;;;;;;;24.13;12.25;;;;;;;10.64;100.00;101527.63;5075244;28;20128;-75
2022/04/13 05:12:45;;;;;;;26.00;11.80;;;;;;;10.63;100.00;101532.00;5075041;28;20463;-75
2022/04/13 05:15:13;;;;;;;25.92;12.38;;;;;;;10.64;100.00;101527.63;5075169;28;20094;-75
2022/04/13 05:17:41;;;;;;;26.63;12.40;;;;;;;10.64;100.00;101533.75;5075082;28;20051;-74
2022/04/13 05:20:11;;;;;;;26.17;11.32;;;;;;;10.63;100.00;101528.47;5057301;28;20090;-75
2022/04/13 05:22:41;;;;;;;23.63;11.45;;;;;;;10.66;100.00;101544.28;5074838;28;20060;-75
2022/04/13 05:25:11;;;;;;;26.80;12.27;;;;;;;10.70;100.00;101544.41;5075106;28;20101;-75
2022/04/13 05:27:40;;;;;;;23.80;11.55;;;;;;;10.70;100.00;101556.63;5074973;28;20219;-76
2022/04/13 05:30:10;;;;;;;26.85;11.90;;;;;;;10.72;100.00;101555.81;5074848;28;20083;-75
2022/04/13 05:32:53;;;;;;;23.17;12.10;;;;;;;10.74;100.00;101554.13;5074737;28;20094;-75
2022/04/13 05:35:21;;;;;;;26.63;12.48;;;;;;;10.78;100.00;101553.34;5074617;28;20106;-76
2022/04/13 05:37:50;;;;;;;24.33;10.73;;;;;;;10.79;100.00;101555.13;5074890;28;20052;-76
2022/04/13 05:40:19;;;;;;;25.02;11.07;;;;;;;10.84;100.00;101554.34;5074992;28;20063;-74
2022/04/13 05:42:47;;;;;;;25.60;12.15;;;;;;;10.87;100.00;101554.41;5074436;28;20070;-74
2022/04/13 05:45:16;;;;;;;27.35;12.10;;;;;;;10.94;100.00;101569.44;5074648;28;20115;-74
2022/04/13 05:47:45;;;;;;;24.33;10.55;;;;;;;10.96;100.00;101566.00;5074513;28;20056;-73
2022/04/13 05:50:14;;;;;;;25.92;11.27;;;;;;;10.99;100.00;101575.69;5074666;28;20052;-74
2022/04/13 05:52:44;;;;;;;26.52;10.70;;;;;;;10.99;100.00;101578.31;5074137;28;20083;-73
2022/04/13 05:55:14;;;;;;;22.02;11.68;;;;;;;11.06;100.00;101577.59;5074633;28;20072;-74
2022/04/13 05:57:43;;;;;;;22.48;11.38;;;;;;;11.11;100.00;101583.84;5074525;28;20045;-74
2022/04/13 06:00:12;;;;;;;22.45;9.70;;;;;;;11.22;100.00;101592.84;5074204;28;20123;-75
2022/04/13 06:02:41;;;;;;;20.20;9.70;;;;;;;11.30;100.00;101588.66;5074549;28;20082;-74
2022/04/13 06:05:10;;;;;;;23.80;10.50;;;;;;;11.37;100.00;101592.31;5074137;28;20055;-75
2022/04/13 06:07:38;;;;;;;24.15;9.77;;;;;;;11.43;100.00;101589.81;5073792;28;20048;-75
2022/04/13 06:10:07;;;;;;;20.38;11.02;;;;;;;11.44;100.00;101600.31;5074332;28;20040;-75
2022/04/13 06:12:36;;;;;;;21.10;11.10;;;;;;;11.50;100.00;101603.94;5074464;28;20048;-75
2022/04/13 06:15:05;;;;;;;23.38;10.30;;;;;;;11.52;100.00;101599.59;5074258;28;20091;-75
2022/04/13 06:17:33;;;;;;;17.75;9.05;;;;;;;11.59;99.88;101609.41;5074239;28;20128;-75
2022/04/13 06:20:01;;;;;;;18.10;9.77;;;;;;;11.60;99.74;101608.53;5073633;28;20139;-75
2022/04/13 06:22:32;;;;;;;21.25;9.90;;;;;;;11.66;99.71;101600.78;5074022;28;20048;-74
2022/04/13 06:25:03;;;;;;;25.30;10.65;;;;;;;11.74;99.28;101612.34;5074080;28;20053;-74
2022/04/13 06:27:31;;;;;;;21.27;10.73;;;;;;;11.76;98.88;101616.78;5073812;28;20048;-75
2022/04/13 06:30:00;;;;;;;21.27;10.35;;;;;;;11.78;98.62;101622.97;5074131;28;20052;-75
2022/04/13 06:32:32;;;;;;;17.50;10.38;;;;;;;11.83;98.53;101633.59;5073972;28;20495;-75
2022/04/13 06:35:00;;;;;;;20.27;10.05;;;;;;;11.85;98.17;101639.78;5073767;28;20091;-75
2022/04/13 06:37:35;;;;;;;23.58;10.70;;;;;;;11.80;98.33;101644.03;5074021;28;20062;-76
2022/04/13 06:40:04;;;;;;;19.15;10.57;;;;;;;11.83;98.42;101645.84;5074080;28;20049;-76
2022/04/13 06:42:37;;;;;;;23.42;11.23;;;;;;;11.82;98.36;101659.84;5073822;28;20048;-75
2022/04/13 06:45:10;;;;;;;19.10;10.68;;;;;;;11.93;98.09;101663.59;5073337;28;20093;-75
2022/04/13 06:47:39;;;;;;;23.10;10.68;;;;;;;12.00;98.03;101666.38;5073875;28;20441;-75
2022/04/13 06:50:09;;;;;;;21.33;9.98;;;;;;;12.05;97.69;101667.34;5073569;28;20128;-76
2022/04/13 06:52:39;;;;;;;22.50;11.40;;;;;;;12.04;97.50;101670.84;5074434;28;20052;-75
2022/04/13 06:55:10;;;;;;;35.10;11.70;;;;;;;12.07;97.66;101668.28;5073224;28;20067;-76
2022/04/13 06:57:38;;;;;;;24.27;10.45;;;;;;;12.24;96.84;101680.88;5073787;28;20059;-75
2022/04/13 07:00:11;;;;;;;25.33;10.23;;;;;;;12.27;96.61;101670.41;5074137;28;20045;-77
2022/04/13 07:02:44;;;;;;;20.88;10.48;;;;;;;12.26;96.53;101680.03;5073698;28;20076;-77
2022/04/13 07:05:35;;;;;;;16.50;9.52;;;;;;;12.35;95.80;101684.59;5074765;28;20473;-76
2022/04/13 07:08:05;;;;;;;22.80;11.07;;;;;;;12.46;95.49;101677.81;5073624;28;20060;-75
2022/04/13 07:10:34;;;;;;;22.40;10.27;;;;;;;12.49;95.08;101675.19;5073249;28;20076;-76
2022/04/13 07:13:10;;;;;;;20.73;10.80;;;;;;;12.53;95.13;101678.78;5073972;28;20052;-75
2022/04/13 07:15:41;;;;;;;16.75;8.77;;;;;;;12.55;94.41;101682.31;5056044;28;20193;-76
2022/04/13 07:18:10;;;;;;;20.27;10.57;;;;;;;12.47;93.87;101684.84;5072292;28;20126;-75
2022/04/13 07:20:38;;;;;;;22.85;9.90;;;;;;;12.48;94.09;101686.56;5073949;28;20124;-75
2022/04/13 07:23:06;;;;;;;17.90;9.60;;;;;;;12.62;94.10;101689.47;5073787;28;20055;-76
2022/04/13 07:25:34;;;;;;;20.80;9.52;;;;;;;12.69;94.12;101686.97;5073900;28;20454;-77
2022/04/13 07:28:03;;;;;;;18.15;9.43;;;;;;;12.82;93.79;101693.34;5072976;28;20053;-75
2022/04/13 07:30:35;;;;;;;20.48;9.02;;;;;;;12.97;93.30;101706.78;5073760;28;20060;-75
2022/04/13 07:33:05;;;;;;;16.45;9.48;;;;;;;12.98;91.95;101705.91;5072347;28;20048;-75
2022/04/13 07:35:33;;;;;;;19.52;9.60;;;;;;;13.14;91.30;101712.31;5072353;28;20086;-75
2022/04/13 07:38:01;;;;;;;16.90;9.50;;;;;;;13.26;90.99;101711.69;5072443;28;20044;-76
2022/04/13 07:40:29;;;;;;;19.88;8.57;;;;;;;13.40;90.97;101718.06;5072115;28;20044;-76
2022/04/13 07:42:57;;;;;;;20.30;9.18;;;;;;;13.41;90.01;101727.72;5072058;28;20147;-75
2022/04/13 07:45:26;;;;;;;20.45;9.32;;;;;;;13.36;89.83;101722.38;5072635;28;20048;-74
2022/04/13 07:47:54;;;;;;;18.27;8.98;;;;;;;13.18;88.91;101723.84;5072158;28;20465;-75
2022/04/13 07:50:23;;;;;;;17.33;9.23;;;;;;;13.09;89.74;101725.41;5071944;28;20041;-76
2022/04/13 07:52:51;;;;;;;21.77;9.60;;;;;;;13.11;89.70;101730.72;5071755;28;20127;-75
2022/04/13 07:55:19;;;;;;;18.13;9.45;;;;;;;13.10;89.40;101726.31;5072012;28;20084;-75
2022/04/13 07:57:47;;;;;;;21.65;8.68;;;;;;;13.14;89.54;101722.88;5072130;28;20124;-76
2022/04/13 08:00:16;;;;;;;21.13;9.77;;;;;;;13.27;89.65;101727.50;5072434;28;20052;-75
2022/04/13 08:02:44;;;;;;;16.55;9.48;;;;;;;13.21;89.48;101730.03;5072523;28;20052;-76
2022/04/13 08:05:14;;;;;;;18.17;8.52;;;;;;;13.34;89.21;101729.38;5072324;28;20053;-76
2022/04/13 08:07:43;;;;;;;15.77;8.85;;;;;;;13.39;89.07;101717.16;5072248;28;20044;-77
2022/04/13 08:10:12;;;;;;;16.92;9.90;;;;;;;13.51;88.59;101721.75;5072804;28;20094;-78
2022/04/13 08:12:40;;;;;;;18.58;8.32;;;;;;;13.56;88.12;101725.31;5072115;28;20468;-77
2022/04/13 08:15:10;;;;;;;17.67;8.75;;;;;;;13.57;87.67;101734.09;5072278;28;20118;-77
2022/04/13 08:17:39;;;;;;;17.75;8.82;;;;;;;13.66;87.67;101740.41;5072241;28;20067;-77
2022/04/13 08:20:09;;;;;;;20.33;9.60;;;;;;;13.67;87.17;101746.56;5072111;28;20123;-75
2022/04/13 08:22:38;;;;;;;19.40;9.45;;;;;;;13.41;87.33;101757.59;5071895;28;20059;-75
2022/04/13 08:25:07;;;;;;;18.40;8.25;;;;;;;13.66;87.56;101750.06;5072014;28;20048;-74
2022/04/13 08:27:42;;;;;;;23.17;9.45;;;;;;;13.74;86.90;101751.06;5072192;28;20415;-75
2022/04/13 08:30:11;;;;;;;16.95;8.20;;;;;;;13.66;86.95;101756.22;5074510;28;20501;-75
2022/04/13 08:32:39;;;;;;;16.92;8.68;;;;;;;13.78;86.74;101755.50;5076078;28;20049;-75
2022/04/13 08:35:09;;;;;;;18.88;8.38;;;;;;;13.72;86.47;101765.97;5076254;28;20048;-75
2022/04/13 08:37:38;;;;;;;16.15;7.93;;;;;;;13.78;86.11;101760.78;5076467;28;20049;-76
2022/04/13 08:40:11;;;;;;;15.43;7.60;;;;;;;13.96;86.01;101758.41;5076092;28;20049;-75
2022/04/13 08:42:47;;;;;;;16.98;8.50;;;;;;;14.22;85.37;101756.13;5076011;28;20094;-75
2022/04/13 08:45:24;;;;;;;16.77;7.97;;;;;;;14.22;84.89;101752.59;5075815;28;20051;-75
2022/04/13 08:47:56;;;;;;;18.67;8.20;;;;;;;14.10;84.44;101750.69;5076027;28;20076;-75
2022/04/13 08:50:27;;;;;;;17.35;8.13;;;;;;;14.22;84.32;101747.31;5075864;28;20048;-75
2022/04/13 08:52:58;;;;;;;15.63;7.32;;;;;;;14.19;83.88;101757.84;5075798;28;20049;-75
2022/04/13 08:55:30;;;;;;;16.77;7.75;;;;;;;14.14;83.69;101765.69;5075967;28;20048;-76
2022/04/13 08:58:08;;;;;;;19.45;8.30;;;;;;;14.14;84.05;101760.41;5075992;28;20052;-79
2022/04/13 09:00:40;;;;;;;19.95;8.10;;;;;;;14.12;84.00;101769.16;5075508;28;20055;-76
2022/04/13 09:03:21;;;;;;;16.95;7.05;;;;;;;14.18;83.88;101779.81;5075430;28;20131;-75
2022/04/13 09:05:51;;;;;;;20.02;8.02;;;;;;;14.21;83.79;101786.00;5075470;28;20094;-77
2022/04/13 09:08:23;;;;;;;15.38;7.25;;;;;;;14.28;83.57;101785.22;5075216;28;20067;-75
2022/04/13 09:10:54;;;;;;;17.45;6.63;;;;;;;14.33;83.29;101796.72;5075364;28;20052;-75
2022/04/13 09:13:24;;;;;;;14.45;6.80;;;;;;;14.46;82.88;101794.28;5075663;28;20056;-76
2022/04/13 09:15:53;;;;;;;16.27;6.93;;;;;;;14.36;83.13;101794.13;5075087;28;20079;-75
2022/04/13 09:18:22;;;;;;;15.75;6.90;;;;;;;14.36;82.55;101803.81;5075317;28;20094;-76
2022/04/13 09:20:50;;;;;;;13.52;6.53;;;;;;;14.49;82.93;101810.16;5075313;28;20099;-74
2022/04/13 09:23:21;;;;;;;17.92;6.90;;;;;;;14.44;81.84;101810.09;5075038;28;20048;-75
2022/04/13 09:25:51;;;;;;;14.50;6.90;;;;;;;14.50;81.56;101812.81;5075215;28;20120;-75
2022/04/13 09:28:21;;;;;;;14.63;6.45;;;;;;;14.66;82.17;101820.03;5075200;28;20052;-76
2022/04/13 09:30:49;;;;;;;15.35;7.25;;;;;;;14.54;81.22;101822.53;5075278;28;20041;-75
2022/04/13 09:33:17;;;;;;;21.08;8.05;;;;;;;14.49;81.43;101821.59;5074770;28;20101;-75
2022/04/13 09:35:45;;;;;;;15.70;7.20;;;;;;;14.62;81.34;101823.50;5075222;28;20041;-74
2022/04/13 09:38:12;;;;;;;14.27;6.88;;;;;;;14.49;81.43;101834.78;5074837;28;20075;-76
2022/04/13 09:40:42;;;;;;;16.30;7.50;;;;;;;14.59;81.71;101825.22;5074335;28;20098;-74
2022/04/13 09:43:18;;;;;;;14.60;6.93;;;;;;;14.73;80.77;101831.53;5074694;28;20048;-75
2022/04/13 09:45:49;;;;;;;16.65;8.55;;;;;;;14.73;80.66;101840.34;5075212;28;20094;-76
2022/04/13 09:48:19;;;;;;;33.75;8.70;;;;;;;14.82;80.46;101839.56;5074673;28;20132;-76
2022/04/13 09:50:49;;;;;;;16.75;7.57;;;;;;;14.93;80.21;101837.06;5074763;28;20048;-76
2022/04/13 09:53:19;;;;;;;19.77;8.55;;;;;;;14.97;80.10;101837.13;5074233;28;20470;-76
2022/04/13 09:55:51;;;;;;;16.10;7.68;;;;;;;14.67;80.67;101842.03;5074445;28;20056;-74
2022/04/13 09:58:22;;;;;;;18.27;8.05;;;;;;;14.63;80.73;101850.78;5074437;28;20066;-75
2022/04/13 10:00:53;;;;;;;18.15;9.05;;;;;;;14.67;81.01;101850.84;5074442;28;20056;-74
2022/04/13 10:03:23;;;;;;;20.42;9.20;;;;;;;14.73;81.16;101852.66;5074648;28;20060;-74
2022/04/13 10:05:52;;;;;;;20.38;9.88;;;;;;;14.57;81.38;101855.97;5074947;28;20065;-74
2022/04/13 10:08:23;;;;;;;17.48;9.90;;;;;;;14.47;81.60;101849.72;5074677;28;20040;-75
2022/04/13 10:10:56;;;;;;;20.25;9.75;;;;;;;14.62;81.79;101855.19;5074447;28;20044;-76
2022/04/13 10:13:32;;;;;;;18.70;9.10;;;;;;;14.61;81.39;101855.16;5074475;28;20091;-75
2022/04/13 10:16:03;;;;;;;18.02;9.35;;;;;;;14.42;81.67;101851.41;5074456;28;20059;-75
2022/04/13 10:18:52;;;;;;;16.88;8.57;;;;;;;14.42;81.35;101853.16;5074275;28;20048;-76
2022/04/13 10:21:40;;;;;;;15.68;8.13;;;;;;;14.65;81.09;101856.97;5073812;28;20045;-75
2022/04/13 10:24:09;;;;;;;21.02;9.50;;;;;;;14.58;81.04;101848.09;5074085;28;20162;-75
2022/04/13 10:26:39;;;;;;;18.23;8.95;;;;;;;14.42;81.76;101848.78;5074211;28;20140;-75
2022/04/13 10:29:17;;;;;;;21.40;9.20;;;;;;;14.47;81.67;101855.00;5073824;28;20483;-76
2022/04/13 10:32:05;;;;;;;20.38;9.75;;;;;;;14.43;82.40;101860.22;5073916;28;20106;-76
2022/04/13 10:34:35;;;;;;;17.77;9.27;;;;;;;14.56;81.99;101860.38;5073841;28;20053;-76
2022/04/13 10:37:04;;;;;;;19.75;8.88;;;;;;;14.57;81.29;101866.53;5073632;28;20056;-75
2022/04/13 10:39:32;;;;;;;16.95;8.77;;;;;;;14.67;80.99;101871.97;5073881;28;20420;-75
2022/04/13 10:42:06;;;;;;;21.63;10.10;;;;;;;14.79;79.86;101868.59;5073814;28;20132;-75
2022/04/13 10:44:36;;;;;;;16.70;8.00;;;;;;;15.04;79.72;101862.72;5073565;28;20127;-75
2022/04/13 10:47:08;;;;;;;21.38;10.63;;;;;;;14.90;79.78;101863.44;5073352;28;20048;-75
2022/04/13 10:49:54;;;;;;;22.58;10.63;;;;;;;15.15;78.85;101862.84;5073960;28;20059;-75
2022/04/13 10:52:28;;;;;;;20.42;10.23;;;;;;;15.23;78.21;101871.75;5072971;28;20044;-75
2022/04/13 10:55:03;;;;;;;22.02;10.05;;;;;;;15.38;77.59;101874.56;5073519;28;20059;-75
2022/04/13 10:57:36;;;;;;;19.65;10.07;;;;;;;15.40;76.13;101861.34;5073339;28;20053;-75
2022/04/13 11:00:06;;;;;;;21.42;9.50;;;;;;;15.50;76.82;101864.97;5072964;28;20056;-75
2022/04/13 11:02:43;;;;;;;20.92;8.60;;;;;;;15.66;76.47;101872.16;5055855;28;20051;-74
2022/04/13 11:05:13;;;;;;;16.88;8.40;;;;;;;15.75;76.19;101856.38;5073404;28;20059;-75
2022/04/13 11:07:41;;;;;;;17.10;7.90;;;;;;;15.80;75.67;101865.22;5073508;28;20060;-76
2022/04/13 11:10:16;;;;;;;14.90;7.88;;;;;;;15.94;75.73;101858.28;5073426;28;20067;-76
2022/04/13 11:12:44;;;;;;;14.10;7.60;;;;;;;16.13;76.29;101861.94;5073486;28;20115;-76
2022/04/13 11:15:42;;;;;;;17.13;8.25;;;;;;;15.84;74.29;101867.03;5068716;27;20460;-76
2022/04/13 11:18:12;;;;;;;20.17;7.88;;;;;;;16.01;74.13;101862.75;5049568;28;20045;-75
2022/04/13 11:21:04;;;;;;;20.02;8.00;;;;;;;15.97;73.95;101868.91;5050336;28;20624;-76
2022/04/13 11:23:56;;;;;;;16.00;8.00;;;;;;;16.18;74.04;101867.28;5048433;28;20063;-75